Архив погоды в Ростове Великом

Метеограмма Ростов Великий
Вторник, 25 Июня
Время местн. Темп Ветер Видим Явления Облачность нижн/средн/верх Атм. давл. Влжн Точка росы ВНГО R Сост. почвы Tg s
Напр Скр Прв ур.ст ур.м изм
06:00 +16.5° С 2 - 10 км - переменная облачность 761 770 +0.8 62% +9.3° более 2.5 км - - - -
03:00 +8.7° С 1 - 10 км - переменная облачность 760 770 +0.3 92% +7.5° - - - - -
00:00 +9.9° штиль 0 - 10 км - ясно 760 769 +0.7 89% +8.1° более 2.5 км - - - -
Понедельник, 24 Июня
Время местн. Темп Ветер Видим Явления Облачность нижн/средн/верх Атм. давл. Влжн Точка росы ВНГО R Сост. почвы Tg s
Напр Скр Прв ур.ст ур.м изм
21:00 +16.7° С 2 - 10 км - переменная облачность 759 768 +0.9 53% +7.2° 1 км - - - -
18:00 +21.6° С 3 - 10 км - переменная облачность 758 767 0 36% +5.8° 1 км - - - -
15:00 +22° С 2 - 10 км - облачно с прояснениями 758 767 +0.1 29% +3° 1 км - - - -
12:00 +21.7° С 2 - 0.5 км - преимущественно облачно 758 767 0 34% +5° 1 км - - - -
09:00 +20.4° С,С-В 2 - 10 км - переменная облачность 758 767 +0.4 36% +5° 1 км - - - -
06:00 +13.9° С 2 - 10 км - переменная облачность 758 767 +0.7 76% +9.7° 1 км - Сухая (без трещин) - -
03:00 +11.9° С 1 - 10 км - облачно с прояснениями 757 767 +0.3 81% +8.8° 1 км - - - -
00:00 +13° штиль 0 - 10 км - облачно с прояснениями 757 766 +0.5 80% +9.6° более 2.5 км - - - -
Воскресенье, 23 Июня
Время местн. Темп Ветер Видим Явления Облачность нижн/средн/верх Атм. давл. Влжн Точка росы ВНГО R Сост. почвы Tg s
Напр Скр Прв ур.ст ур.м изм
21:00 +18.3° С 1 - 10 км - облачно 757 766 -0.3 55% +9.2° более 2.5 км - - - -
18:00 +22.2° С 2 - 10 км - облачно 756 765 -0.3 35% +6° - - - - -
15:00 +24.7° С-З 3 - 10 км - облачно с прояснениями 756 765 -0.2 27% +4.6° 1 км - - - -
12:00 +23.5° С-З 4 - 10 км - переменная облачность 757 765 -0.2 31% +5.4° - - - - -
09:00 +19.6° С 3 - 10 км - переменная облачность 757 766 +1.2 47% +8.1° - - - - -
06:00 +18° С,С-З 4 - 10 км - облачно с прояснениями 756 765 +1.1 81% +14.7° 1 км - Влажная (без луж) - -
03:00 +17.9° С-З 2 - 10 км - облачно с прояснениями 754 763 +1.2 92% +16.5° 1 км - - - -
00:00 +18.8° З,С-З 2 - 10 км - облачно с прояснениями 753 762 +0.8 84% +16° 1 км - - - -
Суббота, 22 Июня
Время местн. Темп Ветер Видим Явления Облачность нижн/средн/верх Атм. давл. Влжн Точка росы ВНГО R Сост. почвы Tg s
Напр Скр Прв ур.ст ур.м изм
21:00 +23.7° З 2 - 10 км слабый ливневый дождь облачно 752 761 +1.1 56% +14.3° 1 км - - - -
18:00 +28.9° З,С-З 3 - 10 км - преимущественно облачно 751 760 -0.2 45% +15.6° 1 км - - - -
15:00 +29.9° З 5 - 10 км - облачно с прояснениями 752 760 -0.5 38% +14.2° 1 км - - - -
12:00 +28° З,Ю-З 3 - 10 км - преимущественно облачно 752 761 +0.1 46% +15.3° 1 км - - - -
09:00 +25.1° З,Ю-З 2 - 10 км - переменная облачность 752 761 -0.5 58% +16.2° - - - - -
06:00 +20° штиль 0 - 10 км - облачно 753 761 +0.1 72% +14.8° - - Сухая (без трещин) - -
03:00 +18.7° штиль 0 - 10 км - облачно 752 761 -0.5 76% +14.4° - - - - -